METAR Data

Data at: 2332 UTC 26 Feb 2020

METAR for:K1P1 (Plymouth Muni, NH, US)
Text:K1P1 262255Z AUTO 11003KT 10SM SCT042 OVC050 06/00 A2997 RMK AO2 T00560000
Temperature: 5.6°C ( 42°F)
Dewpoint: 0.0°C ( 32°F) [RH = 67%]
Pressure (altimeter):29.97 inches Hg (1015.0 mb)
Winds:from the ESE (110 degrees) at 3 MPH (3 knots; 1.5 m/s)
Visibility:10 or more sm (16+ km)
Ceiling:5000 feet AGL
Clouds: scattered clouds at 4200 feet AGL, overcast cloud deck at 5000 feet AGL
QC Flag:automated observation with no human augmentation